sensor_id;sensor_type;location;lat;lon;timestamp;P1;durP1;ratioP1;P2;durP2;ratioP2
71769;SDS011;66386;52.122;5.420;2023-08-21T00:00:50;3.40;;;0.82;;
71769;SDS011;66386;52.122;5.420;2023-08-21T00:03:17;2.08;;;0.85;;
71769;SDS011;66386;52.122;5.420;2023-08-21T00:05:43;6.60;;;0.90;;
71769;SDS011;66386;52.122;5.420;2023-08-21T00:08:10;2.83;;;0.70;;
71769;SDS011;66386;52.122;5.420;2023-08-21T00:10:37;5.60;;;1.13;;
71769;SDS011;66386;52.122;5.420;2023-08-21T00:13:04;3.63;;;1.10;;
71769;SDS011;66386;52.122;5.420;2023-08-21T00:15:31;2.83;;;1.15;;
71769;SDS011;66386;52.122;5.420;2023-08-21T00:17:58;3.75;;;1.17;;
71769;SDS011;66386;52.122;5.420;2023-08-21T00:20:26;3.07;;;1.13;;
71769;SDS011;66386;52.122;5.420;2023-08-21T00:22:53;2.42;;;1.05;;
71769;SDS011;66386;52.122;5.420;2023-08-21T00:25:20;5.22;;;1.40;;
71769;SDS011;66386;52.122;5.420;2023-08-21T00:27:47;2.28;;;1.20;;
71769;SDS011;66386;52.122;5.420;2023-08-21T00:30:14;5.97;;;1.27;;
71769;SDS011;66386;52.122;5.420;2023-08-21T00:32:43;5.47;;;1.23;;
71769;SDS011;66386;52.122;5.420;2023-08-21T00:35:10;2.50;;;0.95;;
71769;SDS011;66386;52.122;5.420;2023-08-21T00:37:37;4.53;;;1.40;;
71769;SDS011;66386;52.122;5.420;2023-08-21T00:40:03;4.57;;;1.25;;
71769;SDS011;66386;52.122;5.420;2023-08-21T00:42:30;5.82;;;1.17;;
71769;SDS011;66386;52.122;5.420;2023-08-21T00:44:57;2.93;;;1.03;;
71769;SDS011;66386;52.122;5.420;2023-08-21T00:47:23;5.30;;;1.20;;
71769;SDS011;66386;52.122;5.420;2023-08-21T00:49:51;2.88;;;1.10;;
71769;SDS011;66386;52.122;5.420;2023-08-21T00:52:17;3.72;;;0.95;;
71769;SDS011;66386;52.122;5.420;2023-08-21T00:54:44;3.08;;;0.95;;
71769;SDS011;66386;52.122;5.420;2023-08-21T00:57:11;3.77;;;1.40;;
71769;SDS011;66386;52.122;5.420;2023-08-21T00:59:38;3.10;;;1.10;;
71769;SDS011;66386;52.122;5.420;2023-08-21T01:02:05;3.33;;;1.67;;
71769;SDS011;66386;52.122;5.420;2023-08-21T01:04:32;2.65;;;0.90;;
71769;SDS011;66386;52.122;5.420;2023-08-21T01:06:58;4.38;;;1.05;;
71769;SDS011;66386;52.122;5.420;2023-08-21T01:09:33;1.87;;;0.80;;
71769;SDS011;66386;52.122;5.420;2023-08-21T01:15:06;2.40;;;1.00;;
71769;SDS011;66386;52.122;5.420;2023-08-21T01:17:34;3.08;;;1.40;;
71769;SDS011;66386;52.122;5.420;2023-08-21T01:20:03;2.10;;;0.88;;
71769;SDS011;66386;52.122;5.420;2023-08-21T01:22:42;4.33;;;1.13;;
71769;SDS011;66386;52.122;5.420;2023-08-21T01:25:12;4.93;;;1.65;;
71769;SDS011;66386;52.122;5.420;2023-08-21T01:27:41;3.38;;;1.05;;
71769;SDS011;66386;52.122;5.420;2023-08-21T01:30:11;5.28;;;0.98;;
71769;SDS011;66386;52.122;5.420;2023-08-21T01:35:20;4.77;;;1.30;;
71769;SDS011;66386;52.122;5.420;2023-08-21T01:37:47;3.05;;;1.20;;
71769;SDS011;66386;52.122;5.420;2023-08-21T01:40:23;3.22;;;1.20;;
71769;SDS011;66386;52.122;5.420;2023-08-21T01:42:52;4.43;;;1.70;;
71769;SDS011;66386;52.122;5.420;2023-08-21T01:45:19;3.75;;;1.08;;
71769;SDS011;66386;52.122;5.420;2023-08-21T01:47:46;3.43;;;1.23;;
71769;SDS011;66386;52.122;5.420;2023-08-21T01:50:13;5.70;;;1.33;;
71769;SDS011;66386;52.122;5.420;2023-08-21T01:52:39;5.00;;;1.33;;
71769;SDS011;66386;52.122;5.420;2023-08-21T01:55:06;3.25;;;1.13;;
71769;SDS011;66386;52.122;5.420;2023-08-21T01:57:36;3.70;;;1.20;;
71769;SDS011;66386;52.122;5.420;2023-08-21T02:00:03;3.23;;;1.10;;
71769;SDS011;66386;52.122;5.420;2023-08-21T02:02:31;4.75;;;1.00;;
71769;SDS011;66386;52.122;5.420;2023-08-21T02:04:57;5.88;;;1.40;;
71769;SDS011;66386;52.122;5.420;2023-08-21T02:07:24;5.75;;;1.00;;
71769;SDS011;66386;52.122;5.420;2023-08-21T02:09:50;2.22;;;1.17;;
71769;SDS011;66386;52.122;5.420;2023-08-21T02:12:17;4.50;;;1.10;;
71769;SDS011;66386;52.122;5.420;2023-08-21T02:14:44;4.63;;;1.55;;
71769;SDS011;66386;52.122;5.420;2023-08-21T02:17:11;1.88;;;0.95;;
71769;SDS011;66386;52.122;5.420;2023-08-21T02:19:37;4.78;;;1.60;;
71769;SDS011;66386;52.122;5.420;2023-08-21T02:22:04;3.40;;;1.38;;
71769;SDS011;66386;52.122;5.420;2023-08-21T02:24:31;4.87;;;1.60;;
71769;SDS011;66386;52.122;5.420;2023-08-21T02:26:57;2.70;;;1.50;;
71769;SDS011;66386;52.122;5.420;2023-08-21T02:29:24;6.95;;;1.77;;
71769;SDS011;66386;52.122;5.420;2023-08-21T02:31:50;2.75;;;1.48;;
71769;SDS011;66386;52.122;5.420;2023-08-21T02:34:17;4.55;;;1.20;;
71769;SDS011;66386;52.122;5.420;2023-08-21T02:36:43;2.37;;;1.33;;
71769;SDS011;66386;52.122;5.420;2023-08-21T02:39:10;2.17;;;1.58;;
71769;SDS011;66386;52.122;5.420;2023-08-21T02:41:36;5.55;;;1.73;;
71769;SDS011;66386;52.122;5.420;2023-08-21T02:44:03;3.90;;;1.88;;
71769;SDS011;66386;52.122;5.420;2023-08-21T02:46:30;4.53;;;1.67;;
71769;SDS011;66386;52.122;5.420;2023-08-21T02:48:56;4.47;;;1.60;;
71769;SDS011;66386;52.122;5.420;2023-08-21T02:51:23;4.18;;;1.50;;
71769;SDS011;66386;52.122;5.420;2023-08-21T02:53:49;3.60;;;1.40;;
71769;SDS011;66386;52.122;5.420;2023-08-21T02:56:16;3.75;;;1.20;;
71769;SDS011;66386;52.122;5.420;2023-08-21T02:58:42;3.13;;;1.90;;
71769;SDS011;66386;52.122;5.420;2023-08-21T03:01:09;4.83;;;1.23;;
71769;SDS011;66386;52.122;5.420;2023-08-21T03:03:35;3.85;;;1.90;;
71769;SDS011;66386;52.122;5.420;2023-08-21T03:06:02;4.72;;;1.75;;
71769;SDS011;66386;52.122;5.420;2023-08-21T03:08:29;5.75;;;1.70;;
71769;SDS011;66386;52.122;5.420;2023-08-21T03:10:55;4.15;;;1.77;;
71769;SDS011;66386;52.122;5.420;2023-08-21T03:13:22;5.07;;;1.60;;
71769;SDS011;66386;52.122;5.420;2023-08-21T03:15:48;4.45;;;1.08;;
71769;SDS011;66386;52.122;5.420;2023-08-21T03:18:15;2.45;;;1.23;;
71769;SDS011;66386;52.122;5.420;2023-08-21T03:20:45;4.72;;;1.35;;
71769;SDS011;66386;52.122;5.420;2023-08-21T03:23:12;2.28;;;1.30;;
71769;SDS011;66386;52.122;5.420;2023-08-21T03:25:39;2.43;;;1.10;;
71769;SDS011;66386;52.122;5.420;2023-08-21T03:28:06;3.20;;;1.30;;
71769;SDS011;66386;52.122;5.420;2023-08-21T03:30:33;4.18;;;1.20;;
71769;SDS011;66386;52.122;5.420;2023-08-21T03:32:59;4.00;;;1.60;;
71769;SDS011;66386;52.122;5.420;2023-08-21T03:35:26;3.30;;;1.30;;
71769;SDS011;66386;52.122;5.420;2023-08-21T03:37:52;2.43;;;0.83;;
71769;SDS011;66386;52.122;5.420;2023-08-21T03:40:19;3.25;;;1.27;;
71769;SDS011;66386;52.122;5.420;2023-08-21T03:42:45;3.47;;;1.88;;
71769;SDS011;66386;52.122;5.420;2023-08-21T03:45:12;6.80;;;1.40;;
71769;SDS011;66386;52.122;5.420;2023-08-21T03:47:38;3.42;;;1.50;;
71769;SDS011;66386;52.122;5.420;2023-08-21T03:50:05;7.13;;;1.60;;
71769;SDS011;66386;52.122;5.420;2023-08-21T03:52:32;3.80;;;1.20;;
71769;SDS011;66386;52.122;5.420;2023-08-21T03:54:58;5.60;;;1.85;;
71769;SDS011;66386;52.122;5.420;2023-08-21T03:57:25;3.97;;;1.55;;
71769;SDS011;66386;52.122;5.420;2023-08-21T03:59:51;5.35;;;1.30;;
71769;SDS011;66386;52.122;5.420;2023-08-21T04:02:18;3.27;;;0.90;;
71769;SDS011;66386;52.122;5.420;2023-08-21T04:04:45;2.95;;;1.42;;
71769;SDS011;66386;52.122;5.420;2023-08-21T04:07:11;2.88;;;1.15;;
71769;SDS011;66386;52.122;5.420;2023-08-21T04:09:38;5.68;;;1.33;;
71769;SDS011;66386;52.122;5.420;2023-08-21T04:12:05;2.05;;;1.10;;
71769;SDS011;66386;52.122;5.420;2023-08-21T04:14:32;3.10;;;1.20;;
71769;SDS011;66386;52.122;5.420;2023-08-21T04:16:58;2.65;;;1.13;;
71769;SDS011;66386;52.122;5.420;2023-08-21T04:19:24;3.72;;;1.00;;
71769;SDS011;66386;52.122;5.420;2023-08-21T04:21:56;1.60;;;0.98;;
71769;SDS011;66386;52.122;5.420;2023-08-21T04:24:22;2.80;;;1.08;;
71769;SDS011;66386;52.122;5.420;2023-08-21T04:26:49;3.90;;;1.00;;
71769;SDS011;66386;52.122;5.420;2023-08-21T04:29:15;2.85;;;1.10;;
71769;SDS011;66386;52.122;5.420;2023-08-21T04:31:42;1.67;;;0.80;;
71769;SDS011;66386;52.122;5.420;2023-08-21T04:34:08;4.07;;;0.82;;
71769;SDS011;66386;52.122;5.420;2023-08-21T04:36:35;2.90;;;0.77;;
71769;SDS011;66386;52.122;5.420;2023-08-21T04:39:01;5.80;;;1.40;;
71769;SDS011;66386;52.122;5.420;2023-08-21T04:41:28;4.78;;;1.10;;
71769;SDS011;66386;52.122;5.420;2023-08-21T04:43:55;2.35;;;0.75;;
71769;SDS011;66386;52.122;5.420;2023-08-21T04:46:21;6.75;;;2.28;;
71769;SDS011;66386;52.122;5.420;2023-08-21T04:48:48;3.30;;;0.80;;
71769;SDS011;66386;52.122;5.420;2023-08-21T04:51:18;2.37;;;0.63;;
71769;SDS011;66386;52.122;5.420;2023-08-21T04:53:47;3.22;;;1.08;;
71769;SDS011;66386;52.122;5.420;2023-08-21T04:56:13;2.60;;;1.00;;
71769;SDS011;66386;52.122;5.420;2023-08-21T04:58:40;2.15;;;0.98;;
71769;SDS011;66386;52.122;5.420;2023-08-21T05:01:06;3.03;;;1.08;;
71769;SDS011;66386;52.122;5.420;2023-08-21T05:03:33;3.97;;;1.20;;
71769;SDS011;66386;52.122;5.420;2023-08-21T05:06:00;4.20;;;1.27;;
71769;SDS011;66386;52.122;5.420;2023-08-21T05:08:27;3.35;;;1.40;;
71769;SDS011;66386;52.122;5.420;2023-08-21T05:10:56;3.45;;;1.25;;
71769;SDS011;66386;52.122;5.420;2023-08-21T05:13:26;3.50;;;1.17;;
71769;SDS011;66386;52.122;5.420;2023-08-21T05:15:54;3.43;;;1.40;;
71769;SDS011;66386;52.122;5.420;2023-08-21T05:18:22;4.50;;;1.35;;
71769;SDS011;66386;52.122;5.420;2023-08-21T05:20:50;4.15;;;1.10;;
71769;SDS011;66386;52.122;5.420;2023-08-21T05:23:19;2.78;;;1.00;;
71769;SDS011;66386;52.122;5.420;2023-08-21T05:25:48;3.08;;;1.00;;
71769;SDS011;66386;52.122;5.420;2023-08-21T05:28:15;2.00;;;0.83;;
71769;SDS011;66386;52.122;5.420;2023-08-21T05:30:41;1.20;;;1.05;;
71769;SDS011;66386;52.122;5.420;2023-08-21T05:33:08;4.60;;;1.42;;
71769;SDS011;66386;52.122;5.420;2023-08-21T05:35:35;3.47;;;1.15;;
71769;SDS011;66386;52.122;5.420;2023-08-21T05:38:05;4.13;;;1.30;;
71769;SDS011;66386;52.122;5.420;2023-08-21T05:40:32;3.37;;;1.20;;
71769;SDS011;66386;52.122;5.420;2023-08-21T05:42:58;5.03;;;1.60;;
71769;SDS011;66386;52.122;5.420;2023-08-21T05:45:25;3.85;;;1.45;;
71769;SDS011;66386;52.122;5.420;2023-08-21T05:47:51;4.53;;;1.60;;
71769;SDS011;66386;52.122;5.420;2023-08-21T05:50:18;2.03;;;1.45;;
71769;SDS011;66386;52.122;5.420;2023-08-21T05:52:45;5.83;;;2.03;;
71769;SDS011;66386;52.122;5.420;2023-08-21T05:55:11;4.80;;;1.77;;
71769;SDS011;66386;52.122;5.420;2023-08-21T05:57:38;6.38;;;2.10;;
71769;SDS011;66386;52.122;5.420;2023-08-21T06:00:05;4.68;;;2.13;;
71769;SDS011;66386;52.122;5.420;2023-08-21T06:02:35;4.47;;;2.22;;
71769;SDS011;66386;52.122;5.420;2023-08-21T06:05:02;2.43;;;2.10;;
71769;SDS011;66386;52.122;5.420;2023-08-21T06:07:29;3.40;;;2.20;;
71769;SDS011;66386;52.122;5.420;2023-08-21T06:09:56;7.90;;;2.33;;
71769;SDS011;66386;52.122;5.420;2023-08-21T06:12:22;6.15;;;2.40;;
71769;SDS011;66386;52.122;5.420;2023-08-21T06:14:49;5.28;;;2.38;;
71769;SDS011;66386;52.122;5.420;2023-08-21T06:17:15;3.93;;;2.10;;
71769;SDS011;66386;52.122;5.420;2023-08-21T06:19:42;4.25;;;2.15;;
71769;SDS011;66386;52.122;5.420;2023-08-21T06:22:08;3.15;;;2.17;;
71769;SDS011;66386;52.122;5.420;2023-08-21T06:24:35;4.57;;;2.40;;
71769;SDS011;66386;52.122;5.420;2023-08-21T06:27:02;4.38;;;2.42;;
71769;SDS011;66386;52.122;5.420;2023-08-21T06:29:32;5.33;;;2.20;;
71769;SDS011;66386;52.122;5.420;2023-08-21T06:31:58;6.22;;;2.65;;
71769;SDS011;66386;52.122;5.420;2023-08-21T06:34:25;4.55;;;2.25;;
71769;SDS011;66386;52.122;5.420;2023-08-21T06:36:51;4.03;;;2.30;;
71769;SDS011;66386;52.122;5.420;2023-08-21T06:39:18;4.30;;;1.90;;
71769;SDS011;66386;52.122;5.420;2023-08-21T06:41:45;2.73;;;1.80;;
71769;SDS011;66386;52.122;5.420;2023-08-21T06:44:11;2.58;;;1.83;;
71769;SDS011;66386;52.122;5.420;2023-08-21T06:46:37;5.53;;;2.15;;
71769;SDS011;66386;52.122;5.420;2023-08-21T06:49:05;5.82;;;2.00;;
71769;SDS011;66386;52.122;5.420;2023-08-21T06:51:31;4.07;;;2.08;;
71769;SDS011;66386;52.122;5.420;2023-08-21T06:53:58;6.80;;;2.37;;
71769;SDS011;66386;52.122;5.420;2023-08-21T06:56:24;3.00;;;1.98;;
71769;SDS011;66386;52.122;5.420;2023-08-21T06:58:51;4.22;;;2.00;;
71769;SDS011;66386;52.122;5.420;2023-08-21T07:01:18;3.22;;;2.03;;
71769;SDS011;66386;52.122;5.420;2023-08-21T07:03:45;3.28;;;2.17;;
71769;SDS011;66386;52.122;5.420;2023-08-21T07:06:11;6.37;;;2.20;;
71769;SDS011;66386;52.122;5.420;2023-08-21T07:08:38;5.43;;;1.90;;
71769;SDS011;66386;52.122;5.420;2023-08-21T07:11:06;5.15;;;2.08;;
71769;SDS011;66386;52.122;5.420;2023-08-21T07:13:36;5.47;;;2.60;;
71769;SDS011;66386;52.122;5.420;2023-08-21T07:16:03;3.40;;;2.22;;
71769;SDS011;66386;52.122;5.420;2023-08-21T07:18:32;4.57;;;2.17;;
71769;SDS011;66386;52.122;5.420;2023-08-21T07:20:59;3.85;;;2.42;;
71769;SDS011;66386;52.122;5.420;2023-08-21T07:23:27;4.78;;;2.53;;
71769;SDS011;66386;52.122;5.420;2023-08-21T07:25:53;4.28;;;2.03;;
71769;SDS011;66386;52.122;5.420;2023-08-21T07:28:20;4.28;;;2.35;;
71769;SDS011;66386;52.122;5.420;2023-08-21T07:30:46;5.07;;;2.37;;
71769;SDS011;66386;52.122;5.420;2023-08-21T07:33:13;5.90;;;2.60;;
71769;SDS011;66386;52.122;5.420;2023-08-21T07:35:40;3.70;;;2.17;;
71769;SDS011;66386;52.122;5.420;2023-08-21T07:38:06;5.35;;;1.92;;
71769;SDS011;66386;52.122;5.420;2023-08-21T07:40:33;6.28;;;1.80;;
71769;SDS011;66386;52.122;5.420;2023-08-21T07:43:00;3.00;;;1.50;;
71769;SDS011;66386;52.122;5.420;2023-08-21T07:45:26;6.15;;;2.40;;
71769;SDS011;66386;52.122;5.420;2023-08-21T07:47:52;5.88;;;2.30;;
71769;SDS011;66386;52.122;5.420;2023-08-21T07:50:38;3.60;;;1.90;;
71769;SDS011;66386;52.122;5.420;2023-08-21T07:53:04;4.65;;;1.70;;
71769;SDS011;66386;52.122;5.420;2023-08-21T07:55:31;3.27;;;1.60;;
71769;SDS011;66386;52.122;5.420;2023-08-21T07:57:57;4.07;;;1.77;;
71769;SDS011;66386;52.122;5.420;2023-08-21T08:00:24;5.82;;;1.75;;
71769;SDS011;66386;52.122;5.420;2023-08-21T08:02:50;4.05;;;1.83;;
71769;SDS011;66386;52.122;5.420;2023-08-21T08:05:17;3.92;;;1.58;;
71769;SDS011;66386;52.122;5.420;2023-08-21T08:07:43;5.57;;;1.10;;
71769;SDS011;66386;52.122;5.420;2023-08-21T08:10:10;2.22;;;1.02;;
71769;SDS011;66386;52.122;5.420;2023-08-21T08:12:36;3.22;;;1.00;;
71769;SDS011;66386;52.122;5.420;2023-08-21T08:15:04;6.47;;;1.00;;
71769;SDS011;66386;52.122;5.420;2023-08-21T08:17:31;5.57;;;1.10;;
71769;SDS011;66386;52.122;5.420;2023-08-21T08:19:58;3.23;;;1.20;;
71769;SDS011;66386;52.122;5.420;2023-08-21T08:22:24;3.88;;;1.15;;
71769;SDS011;66386;52.122;5.420;2023-08-21T08:24:51;3.85;;;1.05;;
71769;SDS011;66386;52.122;5.420;2023-08-21T08:27:17;4.07;;;1.10;;
71769;SDS011;66386;52.122;5.420;2023-08-21T08:29:44;3.78;;;0.95;;
71769;SDS011;66386;52.122;5.420;2023-08-21T08:32:10;3.67;;;0.80;;
71769;SDS011;66386;52.122;5.420;2023-08-21T08:34:37;2.08;;;0.70;;
71769;SDS011;66386;52.122;5.420;2023-08-21T08:37:03;8.70;;;1.05;;
71769;SDS011;66386;52.122;5.420;2023-08-21T08:39:31;5.30;;;0.90;;
71769;SDS011;66386;52.122;5.420;2023-08-21T08:41:58;2.72;;;0.68;;
71769;SDS011;66386;52.122;5.420;2023-08-21T08:44:29;3.63;;;0.60;;
71769;SDS011;66386;52.122;5.420;2023-08-21T08:46:56;6.68;;;1.15;;
71769;SDS011;66386;52.122;5.420;2023-08-21T08:49:23;4.85;;;1.25;;
71769;SDS011;66386;52.122;5.420;2023-08-21T08:51:51;3.60;;;0.80;;
71769;SDS011;66386;52.122;5.420;2023-08-21T08:54:20;4.25;;;1.55;;
71769;SDS011;66386;52.122;5.420;2023-08-21T08:56:48;4.17;;;1.30;;
71769;SDS011;66386;52.122;5.420;2023-08-21T08:59:15;3.92;;;1.08;;
71769;SDS011;66386;52.122;5.420;2023-08-21T09:01:42;2.83;;;0.77;;
71769;SDS011;66386;52.122;5.420;2023-08-21T09:04:09;3.95;;;0.80;;
71769;SDS011;66386;52.122;5.420;2023-08-21T09:06:36;4.32;;;1.00;;
71769;SDS011;66386;52.122;5.420;2023-08-21T09:09:03;4.80;;;1.00;;
71769;SDS011;66386;52.122;5.420;2023-08-21T09:11:32;4.78;;;1.00;;
71769;SDS011;66386;52.122;5.420;2023-08-21T09:13:59;4.07;;;1.10;;
71769;SDS011;66386;52.122;5.420;2023-08-21T09:16:26;4.88;;;1.05;;
71769;SDS011;66386;52.122;5.420;2023-08-21T09:18:53;3.50;;;1.10;;
71769;SDS011;66386;52.122;5.420;2023-08-21T09:21:23;4.37;;;0.90;;
71769;SDS011;66386;52.122;5.420;2023-08-21T09:23:58;3.67;;;1.05;;
71769;SDS011;66386;52.122;5.420;2023-08-21T09:26:26;3.55;;;1.10;;
71769;SDS011;66386;52.122;5.420;2023-08-21T09:28:53;3.67;;;1.13;;
71769;SDS011;66386;52.122;5.420;2023-08-21T09:31:23;2.53;;;0.98;;
71769;SDS011;66386;52.122;5.420;2023-08-21T09:33:56;4.67;;;1.20;;
71769;SDS011;66386;52.122;5.420;2023-08-21T09:36:23;4.03;;;1.35;;
71769;SDS011;66386;52.122;5.420;2023-08-21T09:38:50;4.28;;;1.33;;
71769;SDS011;66386;52.122;5.420;2023-08-21T09:41:19;3.75;;;1.02;;
71769;SDS011;66386;52.122;5.420;2023-08-21T09:43:46;1.75;;;0.80;;
71769;SDS011;66386;52.122;5.420;2023-08-21T09:46:16;2.57;;;1.10;;
71769;SDS011;66386;52.122;5.420;2023-08-21T09:48:49;2.92;;;0.93;;
71769;SDS011;66386;52.122;5.420;2023-08-21T09:51:18;2.53;;;1.10;;
71769;SDS011;66386;52.122;5.420;2023-08-21T09:53:48;4.38;;;1.20;;
71769;SDS011;66386;52.122;5.420;2023-08-21T09:56:17;1.92;;;0.90;;
71769;SDS011;66386;52.122;5.420;2023-08-21T09:58:48;4.80;;;0.90;;
71769;SDS011;66386;52.122;5.420;2023-08-21T10:01:15;3.10;;;0.93;;
71769;SDS011;66386;52.122;5.420;2023-08-21T10:03:45;5.97;;;1.15;;
71769;SDS011;66386;52.122;5.420;2023-08-21T10:06:15;3.97;;;1.17;;
71769;SDS011;66386;52.122;5.420;2023-08-21T10:08:48;4.82;;;1.20;;
71769;SDS011;66386;52.122;5.420;2023-08-21T10:11:19;4.77;;;0.80;;
71769;SDS011;66386;52.122;5.420;2023-08-21T10:13:47;4.57;;;0.90;;
71769;SDS011;66386;52.122;5.420;2023-08-21T10:16:16;5.10;;;1.38;;
71769;SDS011;66386;52.122;5.420;2023-08-21T10:18:44;6.20;;;1.00;;
71769;SDS011;66386;52.122;5.420;2023-08-21T10:21:13;3.50;;;0.90;;
71769;SDS011;66386;52.122;5.420;2023-08-21T10:23:45;3.87;;;0.87;;
71769;SDS011;66386;52.122;5.420;2023-08-21T10:26:13;4.97;;;0.90;;
71769;SDS011;66386;52.122;5.420;2023-08-21T10:29:02;2.40;;;0.85;;
71769;SDS011;66386;52.122;5.420;2023-08-21T10:31:30;5.05;;;0.75;;
71769;SDS011;66386;52.122;5.420;2023-08-21T10:33:57;2.63;;;0.88;;
71769;SDS011;66386;52.122;5.420;2023-08-21T10:36:38;4.00;;;0.80;;
71769;SDS011;66386;52.122;5.420;2023-08-21T10:39:15;4.40;;;0.90;;
71769;SDS011;66386;52.122;5.420;2023-08-21T10:41:52;2.50;;;0.50;;
71769;SDS011;66386;52.122;5.420;2023-08-21T10:49:47;3.80;;;0.50;;
71769;SDS011;66386;52.122;5.420;2023-08-21T10:52:23;3.05;;;0.80;;
71769;SDS011;66386;52.122;5.420;2023-08-21T10:54:52;2.70;;;0.60;;
71769;SDS011;66386;52.122;5.420;2023-08-21T10:57:21;3.58;;;0.60;;
71769;SDS011;66386;52.122;5.420;2023-08-21T10:59:50;3.22;;;1.15;;
71769;SDS011;66386;52.122;5.420;2023-08-21T11:02:17;2.00;;;0.37;;
71769;SDS011;66386;52.122;5.420;2023-08-21T11:04:47;3.40;;;0.50;;
71769;SDS011;66386;52.122;5.420;2023-08-21T11:07:14;2.28;;;0.60;;
71769;SDS011;66386;52.122;5.420;2023-08-21T11:09:41;2.22;;;0.65;;
71769;SDS011;66386;52.122;5.420;2023-08-21T11:12:09;4.35;;;0.50;;
71769;SDS011;66386;52.122;5.420;2023-08-21T11:14:41;2.90;;;0.53;;
71769;SDS011;66386;52.122;5.420;2023-08-21T11:17:09;2.33;;;0.50;;
71769;SDS011;66386;52.122;5.420;2023-08-21T11:19:36;3.03;;;0.43;;
71769;SDS011;66386;52.122;5.420;2023-08-21T11:22:05;2.42;;;0.75;;
71769;SDS011;66386;52.122;5.420;2023-08-21T11:24:48;3.70;;;0.70;;
71769;SDS011;66386;52.122;5.420;2023-08-21T11:27:18;2.83;;;0.57;;
71769;SDS011;66386;52.122;5.420;2023-08-21T11:29:46;2.67;;;0.35;;
71769;SDS011;66386;52.122;5.420;2023-08-21T11:32:15;1.80;;;0.40;;
71769;SDS011;66386;52.122;5.420;2023-08-21T11:34:48;1.08;;;0.40;;
71769;SDS011;66386;52.122;5.420;2023-08-21T11:37:19;0.90;;;0.30;;
71769;SDS011;66386;52.122;5.420;2023-08-21T11:39:48;1.53;;;0.47;;
71769;SDS011;66386;52.122;5.420;2023-08-21T11:42:18;1.38;;;0.40;;
71769;SDS011;66386;52.122;5.420;2023-08-21T11:47:16;1.95;;;0.30;;
71769;SDS011;66386;52.122;5.420;2023-08-21T11:49:44;2.10;;;0.50;;
71769;SDS011;66386;52.122;5.420;2023-08-21T11:52:22;1.07;;;0.40;;
71769;SDS011;66386;52.122;5.420;2023-08-21T11:54:52;1.75;;;0.50;;
71769;SDS011;66386;52.122;5.420;2023-08-21T11:57:20;1.35;;;0.32;;
71769;SDS011;66386;52.122;5.420;2023-08-21T11:59:54;2.35;;;0.73;;
71769;SDS011;66386;52.122;5.420;2023-08-21T12:02:22;2.40;;;0.40;;
71769;SDS011;66386;52.122;5.420;2023-08-21T12:05:05;2.07;;;0.40;;
71769;SDS011;66386;52.122;5.420;2023-08-21T12:07:33;2.42;;;0.40;;
71769;SDS011;66386;52.122;5.420;2023-08-21T12:10:00;2.53;;;0.52;;
71769;SDS011;66386;52.122;5.420;2023-08-21T12:12:26;1.42;;;0.60;;
71769;SDS011;66386;52.122;5.420;2023-08-21T12:14:53;2.95;;;0.57;;
71769;SDS011;66386;52.122;5.420;2023-08-21T12:17:20;1.73;;;0.40;;
71769;SDS011;66386;52.122;5.420;2023-08-21T12:19:46;6.60;;;1.75;;
71769;SDS011;66386;52.122;5.420;2023-08-21T12:22:13;3.13;;;0.85;;
71769;SDS011;66386;52.122;5.420;2023-08-21T12:24:40;1.27;;;0.52;;
71769;SDS011;66386;52.122;5.420;2023-08-21T12:27:06;1.65;;;0.40;;
71769;SDS011;66386;52.122;5.420;2023-08-21T12:29:33;3.83;;;0.57;;
71769;SDS011;66386;52.122;5.420;2023-08-21T12:32:00;2.88;;;0.65;;
71769;SDS011;66386;52.122;5.420;2023-08-21T12:34:27;1.88;;;0.70;;
71769;SDS011;66386;52.122;5.420;2023-08-21T12:36:53;1.85;;;0.50;;
71769;SDS011;66386;52.122;5.420;2023-08-21T12:39:20;2.25;;;0.40;;
71769;SDS011;66386;52.122;5.420;2023-08-21T12:41:48;1.47;;;0.50;;
71769;SDS011;66386;52.122;5.420;2023-08-21T12:44:14;2.33;;;0.55;;
71769;SDS011;66386;52.122;5.420;2023-08-21T12:46:41;2.03;;;0.40;;
71769;SDS011;66386;52.122;5.420;2023-08-21T12:49:08;1.92;;;0.70;;
71769;SDS011;66386;52.122;5.420;2023-08-21T12:51:35;2.92;;;0.88;;
71769;SDS011;66386;52.122;5.420;2023-08-21T12:54:01;2.87;;;0.80;;
71769;SDS011;66386;52.122;5.420;2023-08-21T12:56:28;2.40;;;0.63;;
71769;SDS011;66386;52.122;5.420;2023-08-21T12:58:54;2.50;;;0.90;;
71769;SDS011;66386;52.122;5.420;2023-08-21T13:01:21;3.58;;;0.60;;
71769;SDS011;66386;52.122;5.420;2023-08-21T13:03:47;2.17;;;0.70;;
71769;SDS011;66386;52.122;5.420;2023-08-21T13:06:14;3.30;;;0.80;;
71769;SDS011;66386;52.122;5.420;2023-08-21T13:08:41;3.22;;;0.70;;
71769;SDS011;66386;52.122;5.420;2023-08-21T13:11:07;2.60;;;0.93;;
71769;SDS011;66386;52.122;5.420;2023-08-21T13:13:36;2.17;;;1.00;;
71769;SDS011;66386;52.122;5.420;2023-08-21T13:16:02;2.25;;;1.02;;
71769;SDS011;66386;52.122;5.420;2023-08-21T13:18:29;3.17;;;0.93;;
71769;SDS011;66386;52.122;5.420;2023-08-21T13:20:56;3.30;;;0.80;;
71769;SDS011;66386;52.122;5.420;2023-08-21T13:23:22;2.97;;;0.82;;
71769;SDS011;66386;52.122;5.420;2023-08-21T13:25:49;2.58;;;0.70;;
71769;SDS011;66386;52.122;5.420;2023-08-21T13:28:16;4.20;;;1.00;;
71769;SDS011;66386;52.122;5.420;2023-08-21T13:30:42;2.33;;;0.80;;
71769;SDS011;66386;52.122;5.420;2023-08-21T13:33:09;2.75;;;1.02;;
71769;SDS011;66386;52.122;5.420;2023-08-21T13:35:35;3.15;;;0.73;;
71769;SDS011;66386;52.122;5.420;2023-08-21T13:38:02;2.28;;;0.80;;
71769;SDS011;66386;52.122;5.420;2023-08-21T13:40:30;2.13;;;0.70;;
71769;SDS011;66386;52.122;5.420;2023-08-21T13:42:56;1.63;;;0.47;;
71769;SDS011;66386;52.122;5.420;2023-08-21T13:45:28;2.35;;;0.65;;
71769;SDS011;66386;52.122;5.420;2023-08-21T13:47:54;1.95;;;0.60;;
71769;SDS011;66386;52.122;5.420;2023-08-21T13:50:21;1.65;;;0.40;;
71769;SDS011;66386;52.122;5.420;2023-08-21T13:52:47;1.95;;;0.70;;
71769;SDS011;66386;52.122;5.420;2023-08-21T13:55:14;2.07;;;0.40;;
71769;SDS011;66386;52.122;5.420;2023-08-21T13:57:41;4.25;;;0.80;;
71769;SDS011;66386;52.122;5.420;2023-08-21T14:00:08;1.65;;;0.60;;
71769;SDS011;66386;52.122;5.420;2023-08-21T14:02:40;3.28;;;0.60;;
71769;SDS011;66386;52.122;5.420;2023-08-21T14:05:08;3.45;;;0.57;;
71769;SDS011;66386;52.122;5.420;2023-08-21T14:07:36;1.50;;;0.40;;
71769;SDS011;66386;52.122;5.420;2023-08-21T14:10:04;2.55;;;1.17;;
71769;SDS011;66386;52.122;5.420;2023-08-21T14:12:34;3.60;;;1.30;;
71769;SDS011;66386;52.122;5.420;2023-08-21T14:15:02;1.33;;;0.40;;
71769;SDS011;66386;52.122;5.420;2023-08-21T14:17:29;7.82;;;2.10;;
71769;SDS011;66386;52.122;5.420;2023-08-21T14:19:55;3.10;;;0.47;;
71769;SDS011;66386;52.122;5.420;2023-08-21T14:22:22;2.20;;;0.63;;
71769;SDS011;66386;52.122;5.420;2023-08-21T14:24:49;2.70;;;0.50;;
71769;SDS011;66386;52.122;5.420;2023-08-21T14:27:16;3.88;;;0.80;;
71769;SDS011;66386;52.122;5.420;2023-08-21T14:29:43;2.22;;;0.70;;
71769;SDS011;66386;52.122;5.420;2023-08-21T14:32:10;2.70;;;0.90;;
71769;SDS011;66386;52.122;5.420;2023-08-21T14:34:37;2.20;;;0.40;;
71769;SDS011;66386;52.122;5.420;2023-08-21T14:37:04;2.45;;;0.40;;
71769;SDS011;66386;52.122;5.420;2023-08-21T14:39:31;2.83;;;0.60;;
71769;SDS011;66386;52.122;5.420;2023-08-21T14:41:58;4.93;;;0.60;;
71769;SDS011;66386;52.122;5.420;2023-08-21T14:44:25;3.13;;;0.43;;
71769;SDS011;66386;52.122;5.420;2023-08-21T14:46:52;3.50;;;0.60;;
71769;SDS011;66386;52.122;5.420;2023-08-21T14:49:23;2.28;;;0.50;;
71769;SDS011;66386;52.122;5.420;2023-08-21T14:51:50;2.10;;;0.47;;
71769;SDS011;66386;52.122;5.420;2023-08-21T14:54:16;1.70;;;0.40;;
71769;SDS011;66386;52.122;5.420;2023-08-21T14:56:43;1.87;;;0.60;;
71769;SDS011;66386;52.122;5.420;2023-08-21T14:59:09;1.92;;;0.52;;
71769;SDS011;66386;52.122;5.420;2023-08-21T15:01:37;1.75;;;0.50;;
71769;SDS011;66386;52.122;5.420;2023-08-21T15:04:05;2.00;;;0.80;;